フォルタレザ の空港の天気 - METARとTAF

フォルタレザ/ピント・マーティンズ国際空港 ( SBFZ / FOR ) - ブラジル セアラー州フォルタレザ
飛行場実況気象(Metar)
観測時間02/17 20:00 BRT (02/17 23:00 UTC)
風向・風速東南東 4m/s
視程10km以上
天気現象
全天の4割程度の雲 雲底高度 610m
全天の4割程度の雲 雲底高度 3050m
気温28℃
湿度84%
気圧1012hPa
METARSBFZ 172300Z 11007KT 9999 SCT020 SCT100 28/25 Q1012
過去の天気等 Google飛行場航空写真 Wunderground天気予報

過去48時間のMETAR

飛行場予報(TAF)
発表時間: 2/17 13:00 BRT (2/17 16:00 UTC)
予報対象時間: 17日15時 BRT ~ 18日15時 BRT
風向・風速東 4m/s
視程8000m
全天の4割程度の雲 雲底高度 610m
TAF SBFZ 171600Z 1718/1818 09007KT 8000 SCT020 TN26/1808Z TX30/1816Z RMK PCH